sensor_id;sensor_type;location;lat;lon;timestamp;temperature;humidity
66610;DHT22;53468;48.276;14.416;2023-08-06T04:13:34;15.60;99.90
66610;DHT22;53468;48.276;14.416;2023-08-06T04:19:29;15.60;99.90
66610;DHT22;53468;48.276;14.416;2023-08-06T04:26:02;15.60;99.90
66610;DHT22;53468;48.276;14.416;2023-08-06T13:05:58;16.30;99.90
66610;DHT22;53468;48.276;14.416;2023-08-06T13:17:52;16.10;99.90
66610;DHT22;53468;48.276;14.416;2023-08-06T13:23:32;15.90;99.90
66610;DHT22;53468;48.276;14.416;2023-08-06T13:29:23;16.00;99.90
66610;DHT22;53468;48.276;14.416;2023-08-06T14:11:09;17.30;99.90
66610;DHT22;53468;48.276;14.416;2023-08-06T14:16:57;17.50;99.90
66610;DHT22;53468;48.276;14.416;2023-08-06T14:22:59;17.40;99.90
66610;DHT22;53468;48.276;14.416;2023-08-06T14:28:21;17.60;99.90
66610;DHT22;53468;48.276;14.416;2023-08-06T14:33:41;18.10;99.90
66610;DHT22;53468;48.276;14.416;2023-08-06T14:38:52;17.70;99.90
66610;DHT22;53468;48.276;14.416;2023-08-06T14:44:24;17.40;99.90
66610;DHT22;53468;48.276;14.416;2023-08-06T14:49:40;17.30;99.90
66610;DHT22;53468;48.276;14.416;2023-08-06T14:54:44;17.40;99.90
66610;DHT22;53468;48.276;14.416;2023-08-06T15:00:13;17.40;99.90
66610;DHT22;53468;48.276;14.416;2023-08-06T15:11:08;17.50;99.90
66610;DHT22;53468;48.276;14.416;2023-08-06T15:16:31;17.80;99.90
66610;DHT22;53468;48.276;14.416;2023-08-06T15:21:42;18.10;99.90
66610;DHT22;53468;48.276;14.416;2023-08-06T15:26:54;18.30;99.90
66610;DHT22;53468;48.276;14.416;2023-08-06T15:32:24;18.30;99.90
66610;DHT22;53468;48.276;14.416;2023-08-06T15:37:28;18.30;99.90
66610;DHT22;53468;48.276;14.416;2023-08-06T15:42:42;18.10;99.90
66610;DHT22;53468;48.276;14.416;2023-08-06T15:48:02;17.90;99.90
66610;DHT22;53468;48.276;14.416;2023-08-06T15:53:07;18.30;99.90
66610;DHT22;53468;48.276;14.416;2023-08-06T15:58:48;18.10;99.90
66610;DHT22;53468;48.276;14.416;2023-08-06T16:15:57;17.40;99.90
66610;DHT22;53468;48.276;14.416;2023-08-06T16:21:43;17.40;99.90
66610;DHT22;53468;48.276;14.416;2023-08-06T16:27:31;17.50;99.90
66610;DHT22;53468;48.276;14.416;2023-08-06T18:01:33;14.40;99.90
66610;DHT22;53468;48.276;14.416;2023-08-06T18:13:49;14.40;99.90
66610;DHT22;53468;48.276;14.416;2023-08-06T18:36:54;14.50;99.90
66610;DHT22;53468;48.276;14.416;2023-08-06T18:42:57;14.40;99.90
66610;DHT22;53468;48.276;14.416;2023-08-06T18:48:54;14.40;99.90
66610;DHT22;53468;48.276;14.416;2023-08-06T18:54:14;14.50;99.90
66610;DHT22;53468;48.276;14.416;2023-08-06T18:59:57;14.50;99.90
66610;DHT22;53468;48.276;14.416;2023-08-06T19:05:28;14.50;99.90
66610;DHT22;53468;48.276;14.416;2023-08-06T19:17:21;14.50;99.90
66610;DHT22;53468;48.276;14.416;2023-08-06T19:23:12;14.50;99.90
